createdAt,value
2019-05-07T00:00:29.096Z,12.87
2019-05-07T00:02:57.577Z,12.17
2019-05-07T00:05:25.677Z,10.80
2019-05-07T00:07:53.777Z,9.90
2019-05-07T00:10:24.892Z,11.43
2019-05-07T00:12:53.294Z,11.93
2019-05-07T00:15:22.949Z,11.30
2019-05-07T00:17:52.229Z,11.27
2019-05-07T00:20:20.220Z,10.93
2019-05-07T00:22:47.776Z,12.33
2019-05-07T00:25:15.743Z,11.30
2019-05-07T00:27:44.015Z,13.10
2019-05-07T00:30:12.659Z,12.83
2019-05-07T00:32:42.387Z,10.73
2019-05-07T00:35:14.736Z,10.83
2019-05-07T00:37:47.535Z,9.67
2019-05-07T00:40:17.795Z,10.53
2019-05-07T00:43:06.236Z,9.50
2019-05-07T00:45:52.852Z,9.57
2019-05-07T00:48:23.277Z,11.03
2019-05-07T00:50:52.975Z,13.97
2019-05-07T00:53:23.481Z,10.23
2019-05-07T00:55:52.574Z,11.60
2019-05-07T00:58:25.735Z,10.13
2019-05-07T01:00:50.515Z,12.03
2019-05-07T01:03:18.436Z,10.33
2019-05-07T01:05:46.616Z,11.00
2019-05-07T01:08:14.796Z,10.97
2019-05-07T01:10:42.677Z,8.73
2019-05-07T01:13:12.602Z,10.87
2019-05-07T01:15:42.781Z,12.23
2019-05-07T01:18:12.198Z,10.27
2019-05-07T01:23:13.243Z,11.67
2019-05-07T01:25:43.038Z,11.37
2019-05-07T01:28:13.110Z,9.00
2019-05-07T01:30:40.395Z,11.43
2019-05-07T01:33:18.975Z,9.10
2019-05-07T01:35:57.569Z,9.93
2019-05-07T01:38:26.164Z,10.93
2019-05-07T01:40:54.152Z,11.73
2019-05-07T01:43:22.751Z,12.37
2019-05-07T01:45:53.016Z,9.20
2019-05-07T01:48:22.842Z,9.63
2019-05-07T01:50:52.522Z,11.53
2019-05-07T01:53:22.754Z,11.73
2019-05-07T01:55:52.369Z,16.07
2019-05-07T01:58:22.107Z,9.13
2019-05-07T02:00:49.918Z,7.97
2019-05-07T02:03:37.350Z,10.30
2019-05-07T02:06:15.706Z,13.70
2019-05-07T02:08:48.731Z,11.00
2019-05-07T02:11:21.848Z,9.77
2019-05-07T02:13:50.191Z,11.73
2019-05-07T02:16:18.192Z,10.10
2019-05-07T02:18:46.050Z,8.43
2019-05-07T02:21:13.691Z,8.03
2019-05-07T02:23:42.642Z,8.17
2019-05-07T02:26:13.127Z,8.23
2019-05-07T02:28:42.468Z,11.83
2019-05-07T02:31:10.121Z,8.37
2019-05-07T02:33:38.213Z,10.07
2019-05-07T02:36:06.114Z,11.17
2019-05-07T02:38:53.253Z,9.43
2019-05-07T02:41:25.774Z,9.83
2019-05-07T02:44:06.334Z,12.47
2019-05-07T02:46:43.346Z,7.93
2019-05-07T02:49:14.323Z,10.97
2019-05-07T02:51:53.235Z,12.13
2019-05-07T02:54:24.270Z,11.57
2019-05-07T02:56:53.473Z,11.47
2019-05-07T02:59:23.388Z,10.93
2019-05-07T03:01:53.452Z,8.97
2019-05-07T03:04:20.680Z,11.47
2019-05-07T03:06:48.337Z,10.20
2019-05-07T03:09:16.192Z,12.17
2019-05-07T03:11:44.233Z,10.67
2019-05-07T03:14:25.086Z,12.23
2019-05-07T03:16:53.888Z,11.47
2019-05-07T03:19:24.215Z,12.87
2019-05-07T03:21:55.552Z,13.13
2019-05-07T03:24:26.711Z,14.87
2019-05-07T03:26:54.621Z,12.13
2019-05-07T03:29:24.672Z,10.60
2019-05-07T03:31:56.294Z,9.70
2019-05-07T03:34:37.821Z,11.77
2019-05-07T03:37:07.656Z,10.53
2019-05-07T03:39:35.714Z,13.30
2019-05-07T03:42:03.713Z,10.57
2019-05-07T03:44:33.966Z,12.07
2019-05-07T03:47:19.893Z,10.63
2019-05-07T03:49:48.323Z,13.03
2019-05-07T03:52:16.615Z,13.63
2019-05-07T03:54:44.171Z,21.17
2019-05-07T03:57:15.718Z,28.00
2019-05-07T03:59:43.262Z,28.40
2019-05-07T04:04:38.912Z,26.73
2019-05-07T04:07:06.492Z,20.37
2019-05-07T04:09:34.511Z,20.53
2019-05-07T04:12:03.836Z,17.63
2019-05-07T04:14:34.568Z,15.50
2019-05-07T04:17:14.207Z,14.20
2019-05-07T04:19:32.842Z,12.90
2019-05-07T04:22:04.061Z,11.10
2019-05-07T04:24:35.292Z,12.67
2019-05-07T04:27:19.693Z,12.47
2019-05-07T04:29:47.491Z,9.80
2019-05-07T04:32:16.531Z,13.10
2019-05-07T04:34:48.554Z,10.43
2019-05-07T04:37:16.396Z,12.67
2019-05-07T04:39:53.941Z,13.70
2019-05-07T04:42:24.318Z,13.63
2019-05-07T04:44:53.999Z,14.43
2019-05-07T04:47:34.448Z,13.77
2019-05-07T04:49:53.538Z,10.67
2019-05-07T04:52:23.880Z,12.27
2019-05-07T04:54:52.787Z,15.53
2019-05-07T04:57:26.536Z,15.33
2019-05-07T04:59:58.560Z,12.33
2019-05-07T05:02:28.933Z,11.93
2019-05-07T05:04:56.574Z,11.17
2019-05-07T05:07:24.292Z,14.97
2019-05-07T05:09:53.154Z,12.10
2019-05-07T05:12:22.951Z,11.17
2019-05-07T05:14:52.412Z,11.80
2019-05-07T05:17:22.341Z,10.20
2019-05-07T05:19:49.411Z,12.70
2019-05-07T05:22:25.170Z,11.50
2019-05-07T05:25:12.238Z,11.63
2019-05-07T05:27:40.071Z,11.80
2019-05-07T05:30:12.482Z,13.23
2019-05-07T05:32:40.031Z,13.23
2019-05-07T05:35:08.751Z,14.13
2019-05-07T05:37:37.230Z,14.83
2019-05-07T05:42:38.952Z,11.77
2019-05-07T05:45:09.971Z,16.43
2019-05-07T05:47:37.972Z,14.93
2019-05-07T05:50:08.015Z,15.93
2019-05-07T05:52:37.770Z,13.43
2019-05-07T05:55:07.991Z,12.23
2019-05-07T05:57:37.829Z,12.83
2019-05-07T06:00:14.457Z,15.20
2019-05-07T06:02:47.094Z,12.53
2019-05-07T06:05:34.624Z,12.73
2019-05-07T06:08:04.471Z,10.50
2019-05-07T06:10:52.612Z,12.30
2019-05-07T06:13:25.230Z,11.20
2019-05-07T06:16:03.879Z,14.47
2019-05-07T06:18:36.791Z,11.67
2019-05-07T06:21:09.511Z,11.50
2019-05-07T06:26:12.493Z,11.83
2019-05-07T06:28:39.732Z,10.97
2019-05-07T06:31:08.451Z,9.87
2019-05-07T06:33:36.311Z,9.50
2019-05-07T06:36:04.179Z,10.50
2019-05-07T06:38:33.891Z,12.80
2019-05-07T06:41:03.991Z,12.33
2019-05-07T06:43:42.181Z,13.27
2019-05-07T06:46:09.776Z,10.67
2019-05-07T06:48:42.486Z,12.67
2019-05-07T06:51:06.894Z,15.60
2019-05-07T06:53:34.692Z,14.77
2019-05-07T06:56:04.250Z,18.63
2019-05-07T06:58:52.807Z,13.47
2019-05-07T07:01:28.312Z,15.03
2019-05-07T07:06:47.992Z,13.80
2019-05-07T07:09:22.084Z,13.73
2019-05-07T07:11:52.908Z,18.10
2019-05-07T07:14:22.700Z,16.37
2019-05-07T07:16:52.667Z,15.83
2019-05-07T07:19:20.534Z,16.20
2019-05-07T07:21:48.393Z,16.77
2019-05-07T07:24:16.712Z,16.37
2019-05-07T07:26:45.092Z,16.90
2019-05-07T07:29:14.398Z,18.10
2019-05-07T07:31:44.255Z,16.67
2019-05-07T07:34:12.976Z,16.20
2019-05-07T07:36:42.746Z,20.33
2019-05-07T07:39:12.711Z,19.03
2019-05-07T07:42:03.832Z,18.23
2019-05-07T07:44:32.992Z,20.47
2019-05-07T07:47:02.511Z,20.07
2019-05-07T07:49:32.924Z,14.03
2019-05-07T07:52:02.991Z,17.87
2019-05-07T07:54:32.119Z,15.80
2019-05-07T07:57:02.311Z,18.17
2019-05-07T07:59:42.167Z,17.43
2019-05-07T08:02:14.952Z,18.07
2019-05-07T08:04:42.729Z,19.73
2019-05-07T08:07:12.375Z,15.00
2019-05-07T08:09:45.731Z,19.43
2019-05-07T08:12:13.912Z,16.70
2019-05-07T08:14:42.710Z,14.67
2019-05-07T08:17:13.005Z,13.93
2019-05-07T08:19:42.910Z,27.87
2019-05-07T08:22:12.050Z,13.97
2019-05-07T08:24:39.860Z,16.27
2019-05-07T08:27:07.818Z,16.07
2019-05-07T08:29:35.291Z,14.77
2019-05-07T08:32:17.312Z,13.87
2019-05-07T08:34:53.472Z,15.47
2019-05-07T08:37:24.280Z,13.00
2019-05-07T08:39:52.017Z,14.17
2019-05-07T08:42:20.124Z,13.43
2019-05-07T08:44:51.986Z,11.33
2019-05-07T08:47:27.352Z,14.90
2019-05-07T08:49:55.812Z,13.00
2019-05-07T08:52:26.128Z,11.33
2019-05-07T08:54:53.230Z,11.43
2019-05-07T08:57:22.748Z,15.23
2019-05-07T08:59:58.484Z,15.07
2019-05-07T09:02:22.265Z,10.47
2019-05-07T09:04:52.275Z,11.33
2019-05-07T09:07:21.906Z,12.97
2019-05-07T09:09:52.327Z,13.87
2019-05-07T09:12:22.765Z,12.07
2019-05-07T09:14:52.726Z,11.67
2019-05-07T09:17:20.058Z,11.80
2019-05-07T09:19:51.470Z,13.83
2019-05-07T09:22:17.631Z,12.33
2019-05-07T09:24:45.992Z,11.27
2019-05-07T09:27:15.457Z,11.70
2019-05-07T09:29:55.071Z,10.63
2019-05-07T09:32:24.632Z,11.90
2019-05-07T09:34:54.234Z,10.50
2019-05-07T09:37:26.956Z,11.90
2019-05-07T09:39:54.578Z,13.97
2019-05-07T09:42:23.052Z,9.47
2019-05-07T09:44:52.910Z,10.93
2019-05-07T09:47:21.908Z,12.17
2019-05-07T09:50:01.995Z,13.73
2019-05-07T09:52:19.793Z,11.10
2019-05-07T09:54:47.011Z,13.50
2019-05-07T09:57:27.400Z,13.27
2019-05-07T09:59:44.451Z,10.90
2019-05-07T10:02:12.791Z,11.13
2019-05-07T10:04:41.820Z,13.30
2019-05-07T10:07:10.335Z,11.10
2019-05-07T10:09:39.851Z,12.70
2019-05-07T10:12:24.491Z,12.93
2019-05-07T10:14:52.718Z,13.47
2019-05-07T10:17:32.726Z,13.17
2019-05-07T10:20:03.029Z,11.13
2019-05-07T10:22:32.118Z,12.83
2019-05-07T10:25:02.338Z,12.50
2019-05-07T10:27:32.442Z,11.83
2019-05-07T10:30:02.358Z,12.73
2019-05-07T10:32:32.224Z,10.53
2019-05-07T10:35:02.109Z,11.23
2019-05-07T10:37:31.679Z,10.73
2019-05-07T10:40:00.172Z,9.57
2019-05-07T10:42:28.073Z,11.13
2019-05-07T10:45:02.949Z,11.60
2019-05-07T10:47:37.931Z,11.23
2019-05-07T10:50:35.358Z,10.27
2019-05-07T10:52:54.720Z,10.77
2019-05-07T10:55:22.876Z,10.60
2019-05-07T10:57:52.629Z,8.07
2019-05-07T11:00:24.420Z,8.00
2019-05-07T11:02:53.097Z,9.27
2019-05-07T11:05:21.992Z,10.03
2019-05-07T11:07:49.936Z,11.53
2019-05-07T11:10:18.457Z,10.57
2019-05-07T11:12:46.497Z,13.73
2019-05-07T11:15:14.440Z,10.27
2019-05-07T11:17:43.748Z,9.73
2019-05-07T11:20:13.957Z,10.37
2019-05-07T11:22:42.886Z,11.17
2019-05-07T11:25:12.019Z,11.30
2019-05-07T11:27:41.976Z,11.77
2019-05-07T11:30:12.036Z,11.43
2019-05-07T11:32:40.180Z,10.13
2019-05-07T11:35:09.253Z,12.03
2019-05-07T11:37:37.357Z,10.80
2019-05-07T11:40:06.200Z,11.13
2019-05-07T11:42:52.533Z,8.40
2019-05-07T11:45:22.812Z,8.67
2019-05-07T11:47:51.057Z,7.00
2019-05-07T11:50:22.626Z,8.60
2019-05-07T11:52:52.872Z,8.77
2019-05-07T11:55:22.402Z,7.90
2019-05-07T11:57:51.858Z,7.93
2019-05-07T12:00:34.723Z,7.40
2019-05-07T12:03:02.442Z,8.60
2019-05-07T12:05:30.513Z,8.53
2019-05-07T12:07:58.457Z,8.23
2019-05-07T12:10:26.798Z,10.93
2019-05-07T12:12:54.657Z,7.90
2019-05-07T12:15:22.448Z,8.73
2019-05-07T12:17:52.152Z,8.80
2019-05-07T12:20:21.821Z,12.00
2019-05-07T12:22:51.980Z,10.50
2019-05-07T12:25:20.963Z,9.73
2019-05-07T12:27:51.578Z,11.03
2019-05-07T12:30:40.018Z,7.90
2019-05-07T12:33:15.157Z,7.90
2019-05-07T12:35:43.641Z,7.93
2019-05-07T12:38:12.798Z,8.77
2019-05-07T12:40:41.983Z,9.07
2019-05-07T12:43:10.569Z,8.67
2019-05-07T12:45:38.919Z,9.43
2019-05-07T12:48:07.161Z,10.07
2019-05-07T12:50:34.798Z,9.10
2019-05-07T12:53:12.230Z,9.43
2019-05-07T12:55:42.846Z,10.37
2019-05-07T12:58:12.621Z,8.70
2019-05-07T13:00:54.955Z,8.80
2019-05-07T13:03:34.204Z,9.57
2019-05-07T13:06:02.613Z,11.03
2019-05-07T13:08:30.136Z,8.80
2019-05-07T13:10:57.917Z,9.57
2019-05-07T13:13:25.436Z,8.43
2019-05-07T13:15:52.919Z,9.13
2019-05-07T13:18:22.653Z,8.23
2019-05-07T13:20:51.922Z,8.73
2019-05-07T13:23:22.329Z,11.37
2019-05-07T13:25:49.695Z,9.33
2019-05-07T13:28:17.156Z,8.50
2019-05-07T13:30:44.596Z,8.13
2019-05-07T13:33:14.067Z,9.67
2019-05-07T13:35:44.388Z,10.67
2019-05-07T13:38:14.580Z,8.40
2019-05-07T13:40:55.975Z,8.93
2019-05-07T13:43:25.419Z,14.77
2019-05-07T13:45:57.556Z,7.47
2019-05-07T13:48:26.061Z,7.10
2019-05-07T13:50:53.607Z,9.30
2019-05-07T13:53:22.838Z,7.47
2019-05-07T13:55:50.618Z,13.90
2019-05-07T13:58:18.163Z,6.90
2019-05-07T14:00:59.818Z,7.00
2019-05-07T14:05:56.817Z,8.13
2019-05-07T14:08:28.320Z,7.70
2019-05-07T14:10:55.834Z,15.87
2019-05-07T14:13:23.260Z,8.40
2019-05-07T14:16:07.384Z,9.40
2019-05-07T14:18:37.082Z,8.33
2019-05-07T14:21:05.848Z,9.60
2019-05-07T14:23:33.689Z,8.77
2019-05-07T14:26:02.023Z,8.03
2019-05-07T14:28:30.141Z,7.83
2019-05-07T14:30:58.504Z,7.73
2019-05-07T14:33:36.701Z,8.33
2019-05-07T14:36:06.219Z,9.87
2019-05-07T14:38:35.643Z,7.13
2019-05-07T14:41:03.473Z,8.50
2019-05-07T14:43:37.153Z,7.07
2019-05-07T14:46:05.475Z,7.60
2019-05-07T14:48:36.049Z,8.60
2019-05-07T14:51:04.059Z,18.23
2019-05-07T14:53:32.943Z,7.70
2019-05-07T14:56:01.339Z,8.53
2019-05-07T14:58:29.119Z,9.70
2019-05-07T15:01:08.418Z,7.80
2019-05-07T15:03:36.798Z,12.87
2019-05-07T15:06:05.279Z,8.70
2019-05-07T15:08:33.569Z,9.07
2019-05-07T15:11:02.786Z,10.67
2019-05-07T15:13:32.272Z,11.63
2019-05-07T15:16:02.935Z,7.87
2019-05-07T15:18:42.368Z,11.87
2019-05-07T15:21:12.305Z,7.30
2019-05-07T15:23:42.432Z,7.93
2019-05-07T15:26:12.659Z,7.03
2019-05-07T15:28:42.539Z,10.63
2019-05-07T15:31:21.613Z,16.00
2019-05-07T15:33:49.402Z,9.80
2019-05-07T15:36:16.883Z,8.83
2019-05-07T15:38:44.495Z,7.33
2019-05-07T15:41:12.172Z,9.13
2019-05-07T15:43:39.604Z,8.77
2019-05-07T15:46:07.256Z,7.43
2019-05-07T15:48:34.815Z,10.73
2019-05-07T15:51:02.826Z,9.07
2019-05-07T15:53:32.456Z,7.40
2019-05-07T15:56:01.811Z,8.30
2019-05-07T15:58:29.431Z,8.17
2019-05-07T16:00:56.930Z,7.97
2019-05-07T16:03:29.463Z,17.20
2019-05-07T16:05:56.880Z,12.40
2019-05-07T16:08:26.055Z,9.13
2019-05-07T16:10:54.116Z,10.43
2019-05-07T16:13:23.434Z,11.97
2019-05-07T16:15:52.845Z,8.53
2019-05-07T16:18:23.840Z,18.97
2019-05-07T16:20:52.279Z,20.33
2019-05-07T16:23:21.940Z,10.60
2019-05-07T16:25:49.136Z,11.13
2019-05-07T16:28:16.954Z,17.97
2019-05-07T16:30:44.947Z,16.83
2019-05-07T16:33:13.315Z,28.47
2019-05-07T16:35:42.556Z,10.10
2019-05-07T16:38:14.479Z,7.97
2019-05-07T16:40:42.703Z,9.60
2019-05-07T16:43:11.980Z,24.63
2019-05-07T16:45:42.283Z,8.60
2019-05-07T16:48:14.857Z,9.50
2019-05-07T16:50:42.815Z,10.33
2019-05-07T16:53:13.409Z,9.30
2019-05-07T16:55:40.275Z,7.80
2019-05-07T16:58:09.714Z,8.53
2019-05-07T17:00:42.268Z,9.97
2019-05-07T17:03:12.094Z,7.57
2019-05-07T17:05:39.716Z,14.83
2019-05-07T17:08:09.135Z,11.20
2019-05-07T17:10:36.835Z,7.90
2019-05-07T17:13:04.575Z,9.37
2019-05-07T17:15:34.916Z,7.37
2019-05-07T17:18:03.028Z,7.57
2019-05-07T17:20:32.863Z,9.03
2019-05-07T17:23:02.752Z,16.67
2019-05-07T17:25:36.215Z,11.30
2019-05-07T17:28:05.434Z,10.50
2019-05-07T17:30:33.174Z,10.03
2019-05-07T17:33:01.887Z,11.43
2019-05-07T17:35:30.155Z,9.93
2019-05-07T17:38:06.355Z,10.03
2019-05-07T17:40:27.877Z,8.97
2019-05-07T17:42:55.917Z,12.13
2019-05-07T17:45:23.797Z,8.60
2019-05-07T17:47:52.301Z,10.67
2019-05-07T17:50:22.903Z,11.27
2019-05-07T17:52:53.335Z,10.80
2019-05-07T17:55:22.323Z,12.33
2019-05-07T17:57:52.378Z,12.47
2019-05-07T18:00:22.076Z,10.13
2019-05-07T18:03:07.973Z,11.07
2019-05-07T18:05:35.495Z,9.50
2019-05-07T18:08:03.401Z,9.70
2019-05-07T18:10:31.938Z,10.83
2019-05-07T18:13:00.241Z,11.67
2019-05-07T18:15:27.770Z,11.43
2019-05-07T18:18:06.291Z,9.83
2019-05-07T18:20:34.211Z,9.40
2019-05-07T18:23:02.738Z,10.93
2019-05-07T18:25:32.440Z,10.77
2019-05-07T18:28:01.805Z,9.53
2019-05-07T18:30:30.237Z,10.27
2019-05-07T18:32:59.784Z,15.07
2019-05-07T18:35:28.001Z,11.20
2019-05-07T18:37:55.664Z,11.20
2019-05-07T18:40:23.490Z,11.37
2019-05-07T18:42:52.675Z,12.27
2019-05-07T18:45:21.784Z,12.40
2019-05-07T18:47:51.565Z,13.70
2019-05-07T18:50:19.357Z,11.90
2019-05-07T18:52:47.241Z,12.17
2019-05-07T18:55:15.078Z,12.57
2019-05-07T18:57:42.927Z,11.93
2019-05-07T19:00:17.034Z,11.60
2019-05-07T19:02:45.394Z,14.70
2019-05-07T19:05:13.697Z,13.27
2019-05-07T19:07:41.733Z,13.17
2019-05-07T19:10:12.612Z,11.87
2019-05-07T19:12:42.050Z,12.20
2019-05-07T19:15:12.308Z,12.87
2019-05-07T19:17:39.782Z,14.30
2019-05-07T19:20:08.080Z,12.47
2019-05-07T19:22:37.977Z,12.97
2019-05-07T19:25:06.186Z,13.27
2019-05-07T19:27:34.137Z,14.40
2019-05-07T19:30:02.637Z,13.73
2019-05-07T19:32:32.272Z,16.87
2019-05-07T19:35:00.258Z,16.60
2019-05-07T19:37:28.030Z,14.67
2019-05-07T19:39:55.917Z,12.80
2019-05-07T19:42:23.876Z,14.33
2019-05-07T19:44:51.953Z,15.10
2019-05-07T19:47:20.537Z,13.33
2019-05-07T19:49:48.138Z,14.80
2019-05-07T19:52:16.180Z,13.13
2019-05-07T19:54:58.055Z,14.50
2019-05-07T19:57:24.916Z,15.37
2019-05-07T19:59:58.957Z,14.30
2019-05-07T20:02:32.151Z,14.70
2019-05-07T20:04:59.936Z,13.30
2019-05-07T20:07:27.658Z,15.13
2019-05-07T20:09:55.759Z,14.23
2019-05-07T20:12:23.356Z,13.27
2019-05-07T20:14:51.807Z,14.83
2019-05-07T20:17:21.713Z,18.97
2019-05-07T20:19:49.578Z,16.93
2019-05-07T20:22:17.221Z,14.03
2019-05-07T20:24:46.906Z,15.77
2019-05-07T20:27:14.658Z,16.33
2019-05-07T20:29:42.824Z,17.90
2019-05-07T20:32:11.078Z,16.83
2019-05-07T20:34:38.797Z,15.67
2019-05-07T20:37:06.479Z,15.53
2019-05-07T20:39:34.723Z,19.27
2019-05-07T20:42:03.135Z,20.03
2019-05-07T20:44:31.954Z,20.77
2019-05-07T20:47:13.078Z,17.43
2019-05-07T20:49:42.767Z,18.17
2019-05-07T20:52:10.218Z,17.07
2019-05-07T20:54:43.857Z,19.53
2019-05-07T20:57:13.369Z,19.80
2019-05-07T20:59:41.747Z,22.63
2019-05-07T21:02:11.754Z,18.97
2019-05-07T21:04:39.317Z,21.23
2019-05-07T21:07:07.118Z,17.87
2019-05-07T21:09:34.777Z,22.20
2019-05-07T21:12:02.420Z,19.83
2019-05-07T21:14:32.440Z,20.80
2019-05-07T21:17:00.104Z,17.97
2019-05-07T21:19:28.238Z,22.30
2019-05-07T21:21:56.097Z,18.60
2019-05-07T21:24:24.255Z,18.13
2019-05-07T21:26:53.112Z,20.63
2019-05-07T21:31:49.678Z,18.67
2019-05-07T21:34:17.537Z,22.20
2019-05-07T21:36:45.317Z,22.23
2019-05-07T21:39:13.477Z,20.60
2019-05-07T21:41:42.673Z,21.87
2019-05-07T21:44:11.339Z,19.10
2019-05-07T21:46:39.257Z,17.63
2019-05-07T21:49:06.857Z,18.63
2019-05-07T21:51:34.817Z,18.83
2019-05-07T21:54:04.384Z,18.63
2019-05-07T21:56:37.197Z,17.70
2019-05-07T21:59:09.277Z,22.37
2019-05-07T22:01:45.282Z,22.70
2019-05-07T22:04:13.356Z,19.37
2019-05-07T22:06:42.836Z,22.43
2019-05-07T22:09:12.813Z,20.13
2019-05-07T22:11:42.765Z,18.93
2019-05-07T22:14:12.841Z,22.70
2019-05-07T22:16:41.137Z,22.50
2019-05-07T22:19:08.674Z,18.70
2019-05-07T22:21:36.178Z,18.20
2019-05-07T22:24:03.931Z,19.80
2019-05-07T22:26:32.404Z,15.27
2019-05-07T22:29:02.885Z,15.13
2019-05-07T22:31:34.606Z,15.40
2019-05-07T22:34:06.980Z,14.00
2019-05-07T22:36:34.897Z,14.73
2019-05-07T22:39:02.354Z,14.97
2019-05-07T22:41:31.831Z,15.03
2019-05-07T22:43:59.453Z,15.43
2019-05-07T22:46:27.177Z,13.30
2019-05-07T22:48:55.241Z,13.40
2019-05-07T22:51:23.154Z,15.97
2019-05-07T22:53:50.890Z,12.93
2019-05-07T22:56:33.452Z,15.27
2019-05-07T22:58:52.474Z,15.90
2019-05-07T23:01:22.647Z,14.20
2019-05-07T23:03:52.081Z,12.53
2019-05-07T23:06:19.979Z,15.93
2019-05-07T23:08:47.634Z,13.43
2019-05-07T23:11:15.868Z,18.47
2019-05-07T23:13:43.634Z,15.53
2019-05-07T23:16:12.512Z,16.67
2019-05-07T23:18:42.845Z,14.90
2019-05-07T23:21:09.994Z,14.03
2019-05-07T23:23:37.488Z,14.10
2019-05-07T23:26:05.480Z,16.60
2019-05-07T23:28:33.337Z,15.20
2019-05-07T23:31:02.573Z,17.07
2019-05-07T23:33:32.129Z,17.10
2019-05-07T23:36:02.055Z,16.57
2019-05-07T23:38:31.905Z,15.20
2019-05-07T23:41:02.117Z,16.23
2019-05-07T23:43:31.158Z,18.53
2019-05-07T23:45:58.578Z,16.87
2019-05-07T23:48:26.769Z,18.40
2019-05-07T23:50:54.258Z,14.80
2019-05-07T23:53:22.626Z,18.90
2019-05-07T23:55:52.059Z,16.93
2019-05-07T23:58:28.353Z,14.43
